Time;durP1;ratioP1;P1;durP2;ratioP2;P2;SDS_P1;SDS_P2;PMS_P1;PMS_P2;Temp;Humidity;BMP_temperature;BMP_pressure;BME280_temperature;BME280_humidity;BME280_pressure;Samples;Min_cycle;Max_cycle;Signal;HPM_P1;HPM_P2
2022/10/22 00:00:56;;;;;;;33.08;21.92;;;11.90;99.90;;;;;;4930989;29;20516;-68
2022/10/22 00:03:22;;;;;;;31.10;18.90;;;11.90;99.90;;;;;;4946426;28;20044;-68
2022/10/22 00:05:47;;;;;;;33.65;20.60;;;12.00;99.90;;;;;;4930997;29;20461;-68
2022/10/22 00:08:13;;;;;;;34.85;22.15;;;11.90;99.90;;;;;;4931332;29;20497;-68
2022/10/22 00:10:40;;;;;;;41.67;22.27;;;11.90;99.90;;;;;;4931363;29;20039;-68
2022/10/22 00:13:05;;;;;;;36.38;20.63;;;11.90;99.90;;;;;;4931623;29;20050;-68
2022/10/22 00:15:31;;;;;;;27.85;19.70;;;11.80;99.90;;;;;;4932043;29;20043;-68
2022/10/22 00:17:57;;;;;;;34.65;20.75;;;11.90;99.90;;;;;;4932271;29;20094;-68
2022/10/22 00:20:23;;;;;;;30.88;20.70;;;11.80;99.90;;;;;;4931469;29;20441;-68
2022/10/22 00:22:48;;;;;;;40.65;22.13;;;11.80;99.90;;;;;;4930291;29;20441;-68
2022/10/22 00:25:15;;;;;;;38.90;21.10;;;11.80;99.90;;;;;;4931583;29;20044;-69
2022/10/22 00:27:40;;;;;;;37.13;23.30;;;11.80;99.90;;;;;;4930896;29;20158;-69
2022/10/22 00:30:07;;;;;;;40.67;24.58;;;11.70;99.90;;;;;;4931750;29;20493;-68
2022/10/22 00:32:32;;;;;;;33.72;21.95;;;11.80;99.90;;;;;;4930625;29;20512;-68
2022/10/22 00:34:58;;;;;;;41.50;23.70;;;11.80;99.90;;;;;;4931558;29;20130;-68
2022/10/22 00:37:23;;;;;;;42.65;23.92;;;11.80;99.90;;;;;;4930333;29;20047;-68
2022/10/22 00:39:49;;;;;;;44.28;24.58;;;11.70;99.90;;;;;;4930871;29;20051;-68
2022/10/22 00:42:29;;;;;;;35.95;22.70;;;11.70;99.90;;;;;;4930562;29;20127;-68
2022/10/22 00:45:09;;;;;;;36.33;22.30;;;11.70;99.90;;;;;;4930269;29;20063;-69
2022/10/22 00:48:00;;;;;;;29.90;20.88;;;11.70;99.90;;;;;;4929328;29;20516;-69
2022/10/22 00:50:44;;;;;;;28.88;20.02;;;11.70;99.90;;;;;;4922869;29;20098;-69
2022/10/22 00:53:26;;;;;;;29.50;19.67;;;11.60;99.90;;;;;;4930017;29;20051;-69
2022/10/22 00:55:53;;;;;;;29.67;18.48;;;11.60;99.90;;;;;;4928803;29;20058;-69
2022/10/22 00:58:23;;;;;;;30.50;20.55;;;11.50;99.90;;;;;;4929139;29;20055;-69
2022/10/22 01:00:48;;;;;;;29.95;18.98;;;11.50;99.90;;;;;;4930659;29;20040;-69
2022/10/22 01:03:14;;;;;;;32.25;20.20;;;11.50;99.90;;;;;;4929105;29;20079;-69
2022/10/22 01:05:57;;;;;;;35.05;22.48;;;11.50;99.90;;;;;;4930814;29;20119;-68
2022/10/22 01:08:48;;;;;;;42.65;25.77;;;11.50;99.90;;;;;;4945439;29;20051;-68
2022/10/22 01:11:26;;;;;;;47.67;25.33;;;11.50;99.90;;;;;;4939934;28;20059;-68
2022/10/22 01:14:00;;;;;;;59.37;26.70;;;11.60;99.90;;;;;;4928325;29;20313;-69
2022/10/22 01:16:50;;;;;;;43.70;24.27;;;11.60;99.90;;;;;;4930389;29;20296;-69
2022/10/22 01:19:38;;;;;;;37.97;24.15;;;11.60;99.90;;;;;;4920902;29;20114;-69
2022/10/22 01:22:08;;;;;;;;;;;11.60;99.90;;;;;;4930929;29;20519;-69
2022/10/22 01:25:00;;;;;;;48.88;24.83;;;11.50;99.90;;;;;;4930353;29;19934;-68
2022/10/22 01:27:49;;;;;;;35.53;22.77;;;11.50;99.90;;;;;;4890138;29;20476;-68
2022/10/22 01:30:16;;;;;;;39.75;25.38;;;11.50;99.90;;;;;;4928949;29;20148;-68
2022/10/22 01:33:00;;;;;;;45.03;25.63;;;11.60;99.90;;;;;;4930195;29;20052;-68
2022/10/22 01:35:34;;;;;;;45.97;26.50;;;11.50;99.90;;;;;;4930453;28;20535;-68
2022/10/22 01:38:04;;;;;;;41.50;25.73;;;11.50;99.90;;;;;;4929742;29;20146;-68
2022/10/22 01:40:31;;;;;;;46.33;25.25;;;11.50;99.90;;;;;;4931120;29;20126;-68
2022/10/22 01:43:03;;;;;;;49.60;27.17;;;11.60;99.90;;;;;;4929761;29;20058;-68
2022/10/22 01:45:42;;;;;;;47.00;25.95;;;11.60;99.90;;;;;;4929111;29;20347;-68
2022/10/22 01:48:30;;;;;;;47.85;25.65;;;11.70;99.90;;;;;;4929885;29;20055;-68
2022/10/22 01:51:20;;;;;;;45.05;25.35;;;11.70;99.90;;;;;;4929940;29;20058;-68
2022/10/22 01:54:10;;;;;;;57.83;26.20;;;11.80;99.90;;;;;;4930570;29;20047;-68
2022/10/22 01:56:46;;;;;;;54.15;28.27;;;11.80;99.90;;;;;;4930509;29;20051;-68
2022/10/22 01:59:40;;;;;;;46.15;25.48;;;11.80;99.90;;;;;;4929041;29;20060;-68
2022/10/22 02:02:33;;;;;;;52.38;27.02;;;11.80;99.90;;;;;;4925491;29;20047;-68
2022/10/22 02:05:10;;;;;;;45.53;25.15;;;11.80;99.90;;;;;;4929919;29;20047;-68
2022/10/22 02:07:42;;;;;;;50.25;26.42;;;11.90;99.90;;;;;;4930297;29;20052;-69
2022/10/22 02:10:09;;;;;;;41.50;24.30;;;11.90;99.90;;;;;;4930242;29;20043;-68
2022/10/22 02:12:37;;;;;;;51.58;27.83;;;11.90;99.90;;;;;;4930290;29;20516;-68
2022/10/22 02:15:04;;;;;;;54.85;27.05;;;11.90;99.90;;;;;;4929915;29;20536;-69
2022/10/22 02:17:33;;;;;;;51.67;26.60;;;11.90;99.90;;;;;;4930766;29;20035;-68
2022/10/22 02:20:11;;;;;;;46.45;25.15;;;11.80;99.90;;;;;;4943806;28;20493;-68
2022/10/22 02:22:38;;;;;;;41.35;23.60;;;11.90;99.90;;;;;;4920619;29;20051;-68
2022/10/22 02:25:05;;;;;;;36.88;22.75;;;11.90;99.90;;;;;;4944457;29;20051;-68
2022/10/22 02:27:44;;;;;;;44.63;25.10;;;11.90;99.90;;;;;;4932588;29;20054;-68
2022/10/22 02:30:10;;;;;;;45.78;23.92;;;11.90;99.90;;;;;;4932889;29;20063;-68
2022/10/22 02:32:41;;;;;;;37.67;22.90;;;11.90;99.90;;;;;;4933074;29;20107;-68
2022/10/22 02:35:10;;;;;;;36.28;23.55;;;11.90;99.90;;;;;;4932623;29;20130;-68
2022/10/22 02:37:36;;;;;;;34.78;22.10;;;11.90;99.90;;;;;;4932397;29;20038;-68
2022/10/22 02:40:03;;;;;;;43.10;23.23;;;12.00;99.90;;;;;;4933794;29;20087;-68
2022/10/22 02:42:29;;;;;;;49.47;24.77;;;11.90;99.90;;;;;;4935409;29;20404;-68
2022/10/22 02:44:55;;;;;;;35.50;22.77;;;11.90;99.90;;;;;;4932760;29;20048;-68
2022/10/22 02:47:20;;;;;;;45.97;25.88;;;12.10;99.90;;;;;;4931735;29;20044;-68
2022/10/22 02:49:46;;;;;;;38.25;23.30;;;11.90;99.90;;;;;;4948026;29;20043;-69
2022/10/22 02:52:11;;;;;;;45.08;24.63;;;12.00;99.90;;;;;;4933407;29;20516;-68
2022/10/22 02:54:37;;;;;;;43.22;23.75;;;12.00;99.90;;;;;;4946511;29;20148;-68
2022/10/22 02:57:03;;;;;;;43.22;24.75;;;11.90;99.90;;;;;;4933042;29;20408;-68
2022/10/22 02:59:28;;;;;;;39.03;25.27;;;12.00;99.90;;;;;;4947724;29;20425;-68
2022/10/22 03:01:54;;;;;;;42.35;23.88;;;11.90;99.90;;;;;;4932340;29;20051;-69
2022/10/22 03:04:19;;;;;;;43.65;24.65;;;11.90;99.90;;;;;;4932972;29;20047;-68
2022/10/22 03:06:47;;;;;;;38.78;24.42;;;12.00;99.90;;;;;;4932739;29;20036;-69
2022/10/22 03:09:13;;;;;;;47.03;24.95;;;11.90;99.90;;;;;;4932179;29;20107;-68
2022/10/22 03:11:39;;;;;;;41.65;26.13;;;11.90;99.90;;;;;;4933070;29;20044;-68
2022/10/22 03:14:05;;;;;;;45.15;24.45;;;11.80;99.90;;;;;;4933305;29;20047;-69
2022/10/22 03:16:30;;;;;;;46.17;26.25;;;11.90;99.90;;;;;;4932591;29;20050;-68
2022/10/22 03:18:56;;;;;;;39.97;25.70;;;11.80;99.90;;;;;;4932671;29;20051;-68
2022/10/22 03:21:28;;;;;;;43.75;23.98;;;11.80;99.90;;;;;;4932873;29;20492;-68
2022/10/22 03:23:56;;;;;;;42.63;24.77;;;11.80;99.90;;;;;;4930007;29;20051;-68
2022/10/22 03:26:23;;;;;;;39.08;24.83;;;11.70;99.90;;;;;;4931995;29;20821;-69
2022/10/22 03:28:48;;;;;;;43.00;25.77;;;11.70;99.90;;;;;;4932495;29;20052;-68
2022/10/22 03:31:14;;;;;;;38.00;25.08;;;11.80;99.90;;;;;;4932526;29;20067;-68
2022/10/22 03:33:40;;;;;;;42.40;23.95;;;11.70;99.90;;;;;;4932408;29;20051;-69
2022/10/22 03:36:07;;;;;;;45.22;24.75;;;11.70;99.90;;;;;;4947049;29;20051;-68
2022/10/22 03:38:36;;;;;;;49.58;25.23;;;11.70;99.90;;;;;;4932227;29;20103;-69
2022/10/22 03:41:02;;;;;;;52.33;28.15;;;11.70;99.90;;;;;;4947749;28;20052;-69
2022/10/22 03:43:27;;;;;;;49.65;25.50;;;11.70;99.90;;;;;;4931150;29;20044;-68
2022/10/22 03:45:53;;;;;;;52.58;27.58;;;11.70;99.90;;;;;;4930798;29;20059;-68
2022/10/22 03:48:20;;;;;;;52.25;27.75;;;11.90;99.90;;;;;;4932639;29;20504;-68
2022/10/22 03:50:45;;;;;;;47.47;28.77;;;11.90;99.90;;;;;;4932014;29;20095;-68
2022/10/22 03:53:11;;;;;;;54.38;30.02;;;11.90;99.90;;;;;;4931734;29;20055;-69
2022/10/22 03:55:40;;;;;;;49.58;28.10;;;11.90;99.90;;;;;;4932025;29;20036;-68
2022/10/22 03:58:05;;;;;;;60.95;29.52;;;12.00;99.90;;;;;;4931137;29;20094;-68
2022/10/22 04:00:31;;;;;;;47.60;29.63;;;12.00;99.90;;;;;;4933655;29;20052;-68
2022/10/22 04:02:57;;;;;;;57.70;29.90;;;12.00;99.90;;;;;;4931878;29;20054;-68
2022/10/22 04:05:22;;;;;;;44.72;29.40;;;12.00;99.90;;;;;;4931475;29;20036;-68
2022/10/22 04:07:49;;;;;;;56.55;28.75;;;12.00;99.90;;;;;;4931482;29;20044;-68
2022/10/22 04:10:15;;;;;;;49.20;28.13;;;12.00;99.90;;;;;;4931595;29;20185;-69
2022/10/22 04:12:40;;;;;;;50.92;27.92;;;12.00;99.90;;;;;;4931163;29;20065;-68
2022/10/22 04:15:07;;;;;;;50.78;28.90;;;12.00;99.90;;;;;;4929316;29;20131;-68
2022/10/22 04:17:34;;;;;;;55.92;29.20;;;12.10;99.90;;;;;;4930391;29;20035;-68
2022/10/22 04:20:01;;;;;;;54.53;28.52;;;12.00;99.90;;;;;;4946579;28;20054;-68
2022/10/22 04:22:27;;;;;;;53.10;29.85;;;12.10;99.90;;;;;;4912746;29;20916;-68
2022/10/22 04:24:53;;;;;;;49.92;28.52;;;12.00;99.90;;;;;;4929413;29;20063;-68
2022/10/22 04:27:19;;;;;;;44.47;27.20;;;12.00;99.90;;;;;;4929249;29;20507;-68
2022/10/22 04:29:45;;;;;;;49.28;26.15;;;12.10;99.90;;;;;;4931043;29;20055;-68
2022/10/22 04:32:10;;;;;;;52.67;28.48;;;12.00;99.90;;;;;;4931639;29;20473;-68
2022/10/22 04:34:36;;;;;;;50.58;26.83;;;12.10;99.90;;;;;;4930635;29;20496;-68
2022/10/22 04:37:02;;;;;;;48.65;28.35;;;12.10;99.90;;;;;;4928803;29;20058;-69
2022/10/22 04:39:27;;;;;;;57.72;30.67;;;12.10;99.90;;;;;;4931512;29;20048;-68
2022/10/22 04:41:53;;;;;;;64.20;30.48;;;12.00;99.90;;;;;;4930899;28;20854;-69
2022/10/22 04:44:19;;;;;;;52.70;31.48;;;12.10;99.90;;;;;;4923534;29;20055;-70
2022/10/22 04:46:44;;;;;;;47.22;27.85;;;12.10;99.90;;;;;;4931330;29;20051;-68
2022/10/22 04:49:10;;;;;;;57.42;28.90;;;12.00;99.90;;;;;;4930744;29;20405;-69
2022/10/22 04:51:36;;;;;;;59.88;28.95;;;12.00;99.90;;;;;;4929716;29;20047;-69
2022/10/22 04:54:01;;;;;;;49.08;27.08;;;12.00;99.90;;;;;;4930820;29;20507;-68
2022/10/22 04:56:29;;;;;;;49.25;29.52;;;12.10;99.90;;;;;;4930223;29;20497;-69
2022/10/22 04:59:01;;;;;;;47.08;28.58;;;12.00;99.90;;;;;;4930753;29;20059;-68
2022/10/22 05:01:30;;;;;;;57.05;31.58;;;12.00;99.90;;;;;;4930236;29;20142;-69
2022/10/22 05:03:57;;;;;;;41.25;26.38;;;12.00;99.90;;;;;;4930213;29;20583;-69
2022/10/22 05:06:24;;;;;;;47.08;29.65;;;11.90;99.90;;;;;;4931205;29;20063;-68
2022/10/22 05:08:55;;;;;;;51.40;29.60;;;12.00;99.90;;;;;;4930065;29;20054;-68
2022/10/22 05:11:23;;;;;;;53.22;27.60;;;12.00;99.90;;;;;;4930849;29;20044;-68
2022/10/22 05:13:49;;;;;;;46.28;27.20;;;12.00;99.90;;;;;;4930424;29;20126;-68
2022/10/22 05:16:15;;;;;;;54.88;27.25;;;12.20;99.90;;;;;;4930709;29;20099;-69
2022/10/22 05:18:43;;;;;;;49.50;27.20;;;12.00;99.90;;;;;;4930621;29;20043;-68
2022/10/22 05:21:10;;;;;;;;;;;12.10;99.90;;;;;;4935899;29;20222;-68
2022/10/22 05:23:35;;;;;;;56.53;28.80;;;12.10;99.90;;;;;;4930379;29;19927;-68
2022/10/22 05:26:03;;;;;;;45.38;25.67;;;12.00;99.90;;;;;;4930034;29;20062;-69
2022/10/22 05:28:29;;;;;;;45.92;25.40;;;12.10;99.90;;;;;;4929658;29;20056;-68
2022/10/22 05:30:59;;;;;;;44.60;24.65;;;12.10;99.90;;;;;;4928849;29;20076;-68
2022/10/22 05:33:26;;;;;;;48.10;26.30;;;12.50;99.90;;;;;;4930546;29;20415;-69
2022/10/22 05:35:52;;;;;;;39.37;24.27;;;12.10;99.90;;;;;;4929798;29;20055;-68
2022/10/22 05:38:18;;;;;;;46.47;26.00;;;12.10;99.90;;;;;;4930526;29;20295;-68
2022/10/22 05:40:44;;;;;;;73.80;24.52;;;12.00;99.90;;;;;;4929800;29;20055;-69
2022/10/22 05:43:11;;;;;;;49.08;25.45;;;12.00;99.90;;;;;;4930139;29;20095;-68
2022/10/22 05:45:41;;;;;;;40.38;24.45;;;12.10;99.90;;;;;;4928425;29;20043;-69
2022/10/22 05:48:08;;;;;;;48.15;25.85;;;12.10;99.90;;;;;;4930369;29;20055;-68
2022/10/22 05:50:37;;;;;;;47.47;26.37;;;12.10;99.90;;;;;;4930605;29;20044;-69
2022/10/22 05:53:04;;;;;;;55.05;27.70;;;12.10;99.90;;;;;;4930218;29;20059;-69
2022/10/22 05:55:35;;;;;;;43.15;25.73;;;12.10;99.90;;;;;;4929484;29;20051;-69
2022/10/22 05:58:02;;;;;;;51.92;25.55;;;12.10;99.90;;;;;;4929041;29;21622;-68
2022/10/22 06:00:28;;;;;;;53.10;25.73;;;12.10;99.90;;;;;;4930065;29;20063;-68
2022/10/22 06:02:53;;;;;;;53.25;26.45;;;12.10;99.90;;;;;;4933336;29;20485;-69
2022/10/22 06:05:19;;;;;;;55.28;26.02;;;12.20;99.90;;;;;;4948480;29;20055;-69
2022/10/22 06:07:45;;;;;;;45.97;26.25;;;12.20;99.90;;;;;;4932997;29;20067;-69
2022/10/22 06:10:18;;;;;;;46.83;27.08;;;12.20;99.90;;;;;;4948325;29;20052;-68
2022/10/22 06:12:43;;;;;;;59.30;26.63;;;12.20;99.90;;;;;;4932854;29;20055;-68
2022/10/22 06:15:11;;;;;;;47.95;24.52;;;12.20;99.90;;;;;;4932086;29;20043;-68
2022/10/22 06:17:37;;;;;;;46.40;26.10;;;12.20;99.90;;;;;;4947735;29;20059;-68
2022/10/22 06:20:03;;;;;;;47.25;25.63;;;12.20;99.90;;;;;;4938543;29;20043;-68
2022/10/22 06:22:29;;;;;;;48.10;26.63;;;12.30;99.90;;;;;;4934175;28;20568;-69
2022/10/22 06:24:54;;;;;;;47.75;26.20;;;12.30;99.90;;;;;;4931238;29;20044;-68
2022/10/22 06:27:20;;;;;;;47.75;25.77;;;12.30;99.90;;;;;;4934053;29;20054;-68
2022/10/22 06:29:47;;;;;;;57.08;28.52;;;12.30;99.90;;;;;;4930932;29;20055;-69
2022/10/22 06:32:13;;;;;;;54.08;27.90;;;12.30;99.90;;;;;;4931492;29;20055;-69
2022/10/22 06:34:38;;;;;;;53.88;26.25;;;12.40;99.90;;;;;;4931618;29;20044;-69
2022/10/22 06:37:04;;;;;;;45.47;26.33;;;12.40;99.90;;;;;;4931009;29;20456;-69
2022/10/22 06:39:30;;;;;;;50.08;25.88;;;12.30;99.90;;;;;;4931925;29;20103;-68
2022/10/22 06:41:55;;;;;;;47.60;25.10;;;12.40;99.90;;;;;;4929532;29;20042;-68
2022/10/22 06:44:21;;;;;;;46.20;26.50;;;12.50;99.90;;;;;;4932516;29;20812;-68
2022/10/22 06:46:51;;;;;;;50.17;24.83;;;12.40;99.90;;;;;;4932874;29;20058;-68
2022/10/22 06:49:17;;;;;;;48.90;26.95;;;12.40;99.90;;;;;;4933701;29;20047;-69
2022/10/22 06:51:43;;;;;;;43.85;24.10;;;12.40;99.90;;;;;;4932924;29;20046;-68
2022/10/22 06:54:09;;;;;;;53.72;24.50;;;12.60;99.90;;;;;;4932175;29;20055;-68
2022/10/22 06:56:35;;;;;;;47.72;26.55;;;12.50;99.90;;;;;;4926564;29;20047;-68
2022/10/22 06:59:01;;;;;;;44.92;25.10;;;12.50;99.90;;;;;;4932150;29;20040;-68
2022/10/22 07:01:29;;;;;;;48.50;26.90;;;12.50;99.90;;;;;;4912454;29;20051;-68
2022/10/22 07:03:56;;;;;;;42.65;24.25;;;12.50;99.90;;;;;;4930539;29;20063;-68
2022/10/22 07:06:23;;;;;;;54.20;24.88;;;12.60;99.90;;;;;;4930461;29;20075;-68
2022/10/22 07:08:49;;;;;;;45.67;26.90;;;12.60;99.90;;;;;;4932468;29;20604;-69
2022/10/22 07:11:24;;;;;;;67.07;26.38;;;12.70;99.90;;;;;;4925686;29;20036;-68
2022/10/22 07:13:54;;;;;;;40.65;24.42;;;12.70;99.90;;;;;;4946467;28;20082;-68
2022/10/22 07:16:20;;;;;;;42.72;22.88;;;12.70;99.90;;;;;;4931570;29;20489;-68
2022/10/22 07:18:46;;;;;;;43.25;23.73;;;12.80;99.90;;;;;;4934272;29;20083;-68
2022/10/22 07:21:14;;;;;;;39.90;24.13;;;12.80;99.90;;;;;;4932823;29;20071;-68
2022/10/22 07:23:41;;;;;;;35.42;23.60;;;12.80;99.90;;;;;;4930245;29;20054;-68
2022/10/22 07:26:07;;;;;;;39.35;24.02;;;12.90;99.90;;;;;;4932496;29;20416;-68
2022/10/22 07:28:35;;;;;;;46.50;24.50;;;12.90;99.90;;;;;;4931028;29;20056;-68
2022/10/22 07:31:01;;;;;;;39.58;23.70;;;13.00;99.90;;;;;;4931777;29;20050;-68
2022/10/22 07:33:26;;;;;;;47.70;27.88;;;13.00;99.90;;;;;;4932358;29;20440;-68
2022/10/22 07:36:00;;;;;;;47.75;26.63;;;13.20;99.90;;;;;;4930076;29;20539;-68
2022/10/22 07:38:27;;;;;;;48.50;23.00;;;13.10;99.90;;;;;;4931641;29;20094;-68
2022/10/22 07:40:53;;;;;;;58.30;24.25;;;13.10;99.90;;;;;;4932556;29;20055;-68
2022/10/22 07:43:18;;;;;;;38.00;22.33;;;13.20;99.90;;;;;;4944033;29;20047;-68
2022/10/22 07:45:44;;;;;;;44.35;22.85;;;13.20;99.90;;;;;;4929986;29;20039;-68
2022/10/22 07:48:10;;;;;;;33.85;20.77;;;13.20;99.90;;;;;;4930063;29;20047;-68
2022/10/22 07:50:35;;;;;;;39.10;22.75;;;13.40;99.90;;;;;;4928454;29;20127;-68
2022/10/22 07:53:01;;;;;;;37.85;21.90;;;13.30;99.90;;;;;;4931898;29;20044;-68
2022/10/22 07:55:26;;;;;;;44.47;22.90;;;13.40;99.90;;;;;;4930015;29;20036;-68
2022/10/22 07:57:52;;;;;;;34.92;20.25;;;13.50;99.90;;;;;;4931767;29;20063;-68
2022/10/22 08:00:18;;;;;;;51.10;20.17;;;13.50;99.90;;;;;;4931746;29;20499;-68
2022/10/22 08:02:44;;;;;;;37.38;20.08;;;13.60;99.90;;;;;;4930131;29;20987;-68
2022/10/22 08:05:09;;;;;;;43.72;21.85;;;13.60;99.90;;;;;;4931871;29;20556;-68
2022/10/22 08:07:35;;;;;;;40.22;18.02;;;13.60;99.90;;;;;;4931657;29;20131;-68
2022/10/22 08:10:01;;;;;;;44.83;21.17;;;13.70;99.90;;;;;;4931636;29;20047;-68
2022/10/22 08:12:30;;;;;;;39.90;18.73;;;13.70;99.90;;;;;;4931351;29;20091;-68
2022/10/22 08:14:56;;;;;;;35.58;19.83;;;13.70;99.90;;;;;;4931291;29;20508;-68
2022/10/22 08:17:21;;;;;;;38.95;18.08;;;13.80;99.90;;;;;;4932125;29;20055;-68
2022/10/22 08:19:47;;;;;;;37.47;19.70;;;13.80;99.90;;;;;;4934100;29;20051;-68
2022/10/22 08:22:13;;;;;;;34.85;20.48;;;13.70;99.90;;;;;;4932001;29;20048;-68
2022/10/22 08:24:40;;;;;;;38.13;19.23;;;13.80;99.90;;;;;;4930424;29;20128;-68
2022/10/22 08:27:06;;;;;;;37.50;18.90;;;13.80;99.90;;;;;;4930297;29;20068;-68
2022/10/22 08:29:34;;;;;;;37.25;19.10;;;13.80;99.90;;;;;;4928096;29;20064;-68
2022/10/22 08:32:01;;;;;;;31.20;19.02;;;13.80;99.90;;;;;;4930828;29;20063;-68
2022/10/22 08:34:28;;;;;;;38.63;19.60;;;13.90;99.90;;;;;;4930702;29;20058;-68
2022/10/22 08:36:54;;;;;;;36.42;18.63;;;13.80;99.90;;;;;;4929510;29;20055;-68
2022/10/22 08:39:19;;;;;;;41.55;19.38;;;13.90;99.90;;;;;;4929486;29;20091;-68
2022/10/22 08:42:20;;;;;;;34.58;18.25;;;13.90;99.90;;;;;;4930912;29;20126;-68
2022/10/22 08:44:49;;;;;;;30.55;18.63;;;13.90;99.90;;;;;;4868786;29;20053;-68
2022/10/22 08:47:29;;;;;;;37.45;16.88;;;14.00;99.90;;;;;;4932339;29;20278;-68
2022/10/22 08:49:57;;;;;;;40.40;16.75;;;14.00;99.90;;;;;;4943731;28;20139;-68
2022/10/22 08:52:23;;;;;;;35.55;18.00;;;14.10;99.90;;;;;;4929889;29;20051;-69
2022/10/22 08:54:55;;;;;;;34.65;17.42;;;14.10;99.90;;;;;;4931598;29;20098;-68
2022/10/22 08:57:39;;;;;;;45.90;17.45;;;14.20;99.90;;;;;;4930042;29;20453;-68
2022/10/22 09:00:16;;;;;;;33.38;17.55;;;14.30;99.90;;;;;;4927460;29;20056;-68
2022/10/22 09:03:15;;;;;;;33.60;17.67;;;14.50;99.90;;;;;;4931101;29;20058;-68
2022/10/22 09:05:46;;;;;;;40.45;16.13;;;14.50;99.90;;;;;;4921324;29;20070;-68
2022/10/22 09:08:15;;;;;;;40.72;14.60;;;14.60;99.90;;;;;;4931618;29;20516;-68
2022/10/22 09:10:54;;;;;;;34.58;16.58;;;14.70;99.90;;;;;;4946135;28;20524;-68
2022/10/22 09:13:22;;;;;;;25.40;15.55;;;14.70;99.90;;;;;;4930156;29;20048;-69
2022/10/22 09:16:04;;;;;;;33.70;14.50;;;14.80;99.90;;;;;;4930986;29;20052;-68
2022/10/22 09:18:40;;;;;;;30.23;14.13;;;15.00;99.90;;;;;;4931434;28;20413;-68
2022/10/22 09:21:17;;;;;;;24.60;14.20;;;15.10;99.90;;;;;;4921348;29;20045;-68
2022/10/22 09:23:48;;;;;;;28.40;14.90;;;15.30;99.90;;;;;;4930621;29;20149;-68
2022/10/22 09:26:18;;;;;;;20.23;12.55;;;15.30;99.90;;;;;;4928746;29;20051;-69
2022/10/22 09:28:49;;;;;;;30.00;13.70;;;15.30;99.90;;;;;;4930404;29;20060;-69
2022/10/22 09:31:15;;;;;;;29.08;14.02;;;15.40;99.90;;;;;;4929935;29;20052;-68
2022/10/22 09:33:43;;;;;;;30.30;12.25;;;15.60;99.90;;;;;;4927970;29;20051;-69
2022/10/22 09:36:16;;;;;;;26.85;13.38;;;15.70;99.90;;;;;;4928627;29;20591;-69
2022/10/22 09:38:50;;;;;;;34.58;13.55;;;15.80;99.90;;;;;;4930394;29;20050;-68
2022/10/22 09:41:19;;;;;;;20.42;11.32;;;16.10;99.90;;;;;;4930438;29;20416;-69
2022/10/22 09:43:48;;;;;;;34.47;12.07;;;15.90;99.90;;;;;;4945018;28;20055;-68
2022/10/22 09:46:17;;;;;;;28.17;11.80;;;16.00;99.90;;;;;;4930761;29;20154;-68
2022/10/22 09:49:09;;;;;;;25.85;11.38;;;16.30;99.90;;;;;;4930442;29;20047;-69
2022/10/22 09:51:35;;;;;;;36.25;12.50;;;16.10;99.90;;;;;;4927196;29;20166;-68
2022/10/22 09:54:12;;;;;;;24.77;12.02;;;16.20;99.90;;;;;;4929201;29;20118;-69
2022/10/22 09:56:41;;;;;;;20.60;11.52;;;16.10;99.90;;;;;;4925103;29;20039;-68
2022/10/22 09:59:17;;;;;;;28.08;11.15;;;16.20;99.90;;;;;;4932847;28;20040;-68
2022/10/22 10:01:43;;;;;;;26.95;12.35;;;16.20;99.90;;;;;;4935335;28;20050;-68
2022/10/22 10:04:15;;;;;;;29.90;11.38;;;16.20;99.90;;;;;;4929498;29;20039;-68
2022/10/22 10:06:43;;;;;;;28.50;11.77;;;16.20;99.90;;;;;;4926996;29;20122;-68
2022/10/22 10:09:21;;;;;;;30.92;11.00;;;16.10;99.90;;;;;;4928926;29;20052;-68
2022/10/22 10:12:25;;;;;;;23.00;10.50;;;16.00;99.90;;;;;;4933334;29;20700;-68
2022/10/22 10:15:02;;;;;;;29.13;11.43;;;16.00;99.90;;;;;;4921076;29;20646;-68
2022/10/22 10:17:48;;;;;;;28.38;11.10;;;16.00;99.90;;;;;;4943360;28;20502;-68
2022/10/22 10:20:37;;;;;;;29.77;13.15;;;15.80;99.90;;;;;;4928749;29;20160;-68
2022/10/22 10:23:33;;;;;;;21.20;11.07;;;15.90;99.90;;;;;;4940903;28;20122;-68
2022/10/22 10:26:36;;;;;;;29.17;11.98;;;16.00;99.90;;;;;;4929811;29;20472;-68
2022/10/22 10:29:15;;;;;;;22.92;11.95;;;15.90;99.90;;;;;;4880472;29;20056;-68
2022/10/22 10:32:01;;;;;;;26.10;12.13;;;16.00;99.90;;;;;;4889940;29;20127;-68
2022/10/22 10:34:41;;;;;;;35.50;12.10;;;16.00;99.90;;;;;;4891752;29;20128;-68
2022/10/22 10:37:22;;;;;;;24.65;12.02;;;15.90;99.90;;;;;;4891110;29;20040;-68
2022/10/22 10:40:25;;;;;;;27.85;10.65;;;15.90;99.90;;;;;;4892331;29;20052;-68
2022/10/22 10:42:59;;;;;;;30.30;12.45;;;15.90;99.90;;;;;;4892207;29;20526;-68
2022/10/22 10:45:44;;;;;;;30.73;13.90;;;15.80;99.90;;;;;;4907030;29;20052;-68
2022/10/22 10:48:34;;;;;;;23.50;12.52;;;15.90;99.90;;;;;;4894845;29;20049;-68
2022/10/22 10:51:11;;;;;;;16.45;10.38;;;15.80;99.90;;;;;;4895833;29;20044;-68
2022/10/22 10:54:03;;;;;;;25.35;11.45;;;15.90;99.90;;;;;;4895927;29;20076;-68
2022/10/22 10:56:54;;;;;;;22.80;12.45;;;15.90;99.90;;;;;;4895586;29;20044;-68
2022/10/22 10:59:59;;;;;;;32.28;12.77;;;15.90;99.90;;;;;;4888389;29;20056;-68
2022/10/22 11:03:00;;;;;;;25.65;12.15;;;15.80;99.90;;;;;;4895592;29;20040;-68
2022/10/22 11:05:44;;;;;;;32.70;14.52;;;16.00;99.90;;;;;;4891987;29;20063;-68
2022/10/22 11:08:30;;;;;;;28.42;12.23;;;16.00;99.90;;;;;;4895592;29;20080;-68
2022/10/22 11:11:17;;;;;;;37.00;14.25;;;16.00;99.90;;;;;;4886454;29;20060;-67
2022/10/22 11:13:50;;;;;;;31.88;13.50;;;16.10;99.90;;;;;;4909625;29;20413;-68
2022/10/22 11:16:25;;;;;;;22.67;12.35;;;16.00;99.90;;;;;;4890030;29;20793;-68
2022/10/22 11:18:51;;;;;;;30.77;13.82;;;16.00;99.90;;;;;;4895056;29;20051;-68
2022/10/22 11:21:30;;;;;;;26.73;12.70;;;16.00;99.90;;;;;;4893548;29;20048;-68
2022/10/22 11:24:21;;;;;;;33.53;12.50;;;16.00;99.90;;;;;;4892933;29;20057;-67
2022/10/22 11:27:16;;;;;;;20.67;12.73;;;16.10;99.90;;;;;;4893400;29;20085;-68
2022/10/22 11:29:48;;;;;;;31.83;13.50;;;16.00;99.90;;;;;;4918888;29;20051;-67
2022/10/22 11:32:18;;;;;;;23.70;13.95;;;16.00;99.90;;;;;;4932852;29;20183;-67
2022/10/22 11:34:48;;;;;;;25.40;14.63;;;15.90;99.90;;;;;;4931829;29;20091;-68
2022/10/22 11:37:15;;;;;;;26.25;13.82;;;15.90;99.90;;;;;;4933087;29;20484;-68
2022/10/22 11:39:56;;;;;;;46.65;15.45;;;16.10;99.90;;;;;;4929826;29;20078;-68
2022/10/22 11:42:32;;;;;;;28.02;15.50;;;16.00;99.90;;;;;;4931425;29;20082;-68
2022/10/22 11:45:05;;;;;;;31.45;18.73;;;15.90;99.90;;;;;;4932443;29;20069;-68
2022/10/22 11:47:40;;;;;;;30.33;16.52;;;15.90;99.90;;;;;;4932253;29;20456;-68
2022/10/22 11:50:26;;;;;;;38.08;16.65;;;15.90;99.90;;;;;;4930339;29;20047;-68
2022/10/22 11:53:01;;;;;;;22.33;14.38;;;15.90;99.90;;;;;;4931403;29;20047;-68
2022/10/22 11:55:50;;;;;;;30.20;16.67;;;15.90;99.90;;;;;;4929750;29;20043;-68
2022/10/22 11:58:27;;;;;;;22.27;15.52;;;15.90;99.90;;;;;;4926822;29;20122;-68
2022/10/22 12:01:11;;;;;;;29.38;15.95;;;16.00;99.90;;;;;;4930158;29;20766;-68
2022/10/22 12:03:42;;;;;;;33.60;15.95;;;16.10;99.90;;;;;;4931676;29;20493;-68
2022/10/22 12:06:11;;;;;;;22.40;14.30;;;16.00;99.90;;;;;;4921856;29;20087;-67
2022/10/22 12:08:49;;;;;;;28.80;14.88;;;16.10;99.90;;;;;;4930503;29;20051;-67
2022/10/22 12:11:33;;;;;;;;;;;16.20;99.90;;;;;;4928801;29;20067;-68
2022/10/22 12:14:32;;;;;;;37.03;16.65;;;16.20;99.90;;;;;;4930844;29;20380;-67
2022/10/22 12:17:19;;;;;;;21.42;14.00;;;16.30;99.90;;;;;;4931220;29;20151;-67
2022/10/22 12:20:12;;;;;;;28.92;15.65;;;16.50;99.90;;;;;;4930998;29;20135;-67
2022/10/22 12:22:38;;;;;;;25.52;17.23;;;16.40;99.90;;;;;;4945511;29;20055;-67
2022/10/22 12:25:25;;;;;;;35.92;16.63;;;16.40;99.90;;;;;;4931499;29;20122;-67
2022/10/22 12:27:56;;;;;;;39.05;16.83;;;16.50;99.90;;;;;;4930181;29;20048;-67
2022/10/22 12:30:23;;;;;;;36.20;16.27;;;16.40;99.90;;;;;;4931505;29;20048;-67
2022/10/22 12:32:55;;;;;;;38.97;18.20;;;16.40;99.90;;;;;;4930649;29;20086;-68
2022/10/22 12:35:24;;;;;;;37.38;17.98;;;16.40;99.90;;;;;;4930697;29;20438;-67
2022/10/22 12:38:01;;;;;;;26.52;16.77;;;16.40;99.90;;;;;;4930051;29;20119;-67
2022/10/22 12:40:30;;;;;;;29.95;17.83;;;16.40;99.90;;;;;;4930178;29;20068;-67
2022/10/22 12:42:58;;;;;;;25.55;14.88;;;16.40;99.90;;;;;;4931009;29;20071;-67
2022/10/22 12:45:33;;;;;;;29.15;15.63;;;16.30;99.90;;;;;;4931265;29;20036;-67
2022/10/22 12:48:01;;;;;;;28.90;16.38;;;16.30;99.90;;;;;;4930967;29;20055;-67
2022/10/22 12:50:37;;;;;;;27.13;15.05;;;16.30;99.90;;;;;;4931130;29;20044;-67